createdAt,value
2018-11-13T00:00:47.906Z,12.38
2018-11-13T00:03:17.752Z,12.36
2018-11-13T00:05:48.566Z,12.32
2018-11-13T00:08:18.401Z,12.23
2018-11-13T00:10:48.226Z,12.28
2018-11-13T00:13:18.029Z,12.28
2018-11-13T00:15:47.815Z,12.29
2018-11-13T00:18:17.660Z,12.24
2018-11-13T00:20:47.447Z,12.30
2018-11-13T00:23:17.262Z,12.24
2018-11-13T00:25:47.090Z,12.14
2018-11-13T00:28:16.907Z,12.08
2018-11-13T00:30:46.686Z,12.03
2018-11-13T00:33:16.539Z,11.99
2018-11-13T00:35:46.430Z,11.94
2018-11-13T00:38:16.233Z,11.91
2018-11-13T00:40:45.990Z,11.88
2018-11-13T00:43:15.874Z,11.92
2018-11-13T00:45:45.973Z,11.88
2018-11-13T00:48:15.561Z,11.89
2018-11-13T00:50:45.696Z,11.90
2018-11-13T00:53:15.354Z,11.89
2018-11-13T00:55:45.194Z,11.88
2018-11-13T00:58:15.075Z,11.86
2018-11-13T01:00:44.871Z,11.84
2018-11-13T01:03:14.743Z,11.82
2018-11-13T01:05:44.613Z,11.79
2018-11-13T01:08:14.486Z,11.80
2018-11-13T01:10:44.325Z,11.82
2018-11-13T01:13:14.155Z,11.78
2018-11-13T01:15:43.930Z,11.73
2018-11-13T01:18:13.839Z,11.73
2018-11-13T01:20:43.662Z,11.74
2018-11-13T01:23:13.531Z,11.73
2018-11-13T01:25:43.376Z,11.83
2018-11-13T01:28:13.214Z,11.88
2018-11-13T01:30:43.079Z,11.83
2018-11-13T01:33:12.966Z,11.82
2018-11-13T01:35:42.762Z,11.77
2018-11-13T01:38:12.567Z,11.72
2018-11-13T01:40:42.397Z,11.69
2018-11-13T01:43:12.179Z,11.69
2018-11-13T01:45:41.983Z,11.68
2018-11-13T01:48:11.844Z,11.67
2018-11-13T01:50:41.650Z,11.65
2018-11-13T01:53:11.530Z,11.63
2018-11-13T01:55:41.365Z,11.60
2018-11-13T01:58:11.154Z,11.59
2018-11-13T02:00:40.971Z,11.63
2018-11-13T02:03:10.785Z,11.66
2018-11-13T02:05:40.640Z,11.71
2018-11-13T02:08:10.422Z,11.75
2018-11-13T02:10:40.262Z,11.72
2018-11-13T02:13:10.058Z,11.68
2018-11-13T02:15:39.889Z,11.68
2018-11-13T02:18:09.680Z,11.68
2018-11-13T02:20:39.471Z,11.66
2018-11-13T02:23:09.363Z,11.61
2018-11-13T02:25:39.260Z,11.64
2018-11-13T02:28:09.132Z,11.70
2018-11-13T02:30:38.966Z,11.71
2018-11-13T02:33:08.862Z,11.71
2018-11-13T02:35:38.783Z,11.70
2018-11-13T02:38:08.511Z,11.69
2018-11-13T02:40:38.324Z,11.66
2018-11-13T02:43:08.106Z,11.61
2018-11-13T02:45:37.955Z,11.58
2018-11-13T02:48:07.809Z,11.57
2018-11-13T02:50:37.742Z,11.59
2018-11-13T02:53:07.814Z,11.60
2018-11-13T02:55:37.618Z,11.58
2018-11-13T02:58:07.567Z,11.58
2018-11-13T03:00:37.485Z,11.56
2018-11-13T03:03:07.374Z,11.56
2018-11-13T03:05:37.274Z,11.55
2018-11-13T03:08:07.219Z,11.55
2018-11-13T03:10:37.111Z,11.58
2018-11-13T03:13:06.948Z,11.59
2018-11-13T03:15:36.830Z,11.63
2018-11-13T03:18:06.678Z,11.63
2018-11-13T03:20:36.558Z,11.63
2018-11-13T03:23:06.447Z,11.64
2018-11-13T03:25:36.286Z,11.66
2018-11-13T03:28:06.138Z,11.69
2018-11-13T03:30:36.014Z,11.75
2018-11-13T03:33:05.941Z,11.80
2018-11-13T03:35:35.846Z,11.78
2018-11-13T03:38:05.866Z,11.78
2018-11-13T03:40:35.955Z,11.74
2018-11-13T03:43:06.158Z,11.72
2018-11-13T03:45:36.060Z,11.74
2018-11-13T03:48:06.780Z,11.75
2018-11-13T03:50:36.664Z,11.77
2018-11-13T03:53:06.514Z,11.80
2018-11-13T03:55:36.418Z,11.75
2018-11-13T03:58:06.915Z,11.71
2018-11-13T04:00:36.722Z,11.74
2018-11-13T04:03:06.570Z,11.71
2018-11-13T04:05:36.495Z,11.65
2018-11-13T04:08:06.452Z,11.66
2018-11-13T04:10:36.297Z,11.56
2018-11-13T04:13:06.447Z,11.45
2018-11-13T04:15:36.344Z,11.33
2018-11-13T04:18:06.643Z,11.27
2018-11-13T04:20:36.454Z,11.26
2018-11-13T04:23:06.295Z,11.23
2018-11-13T04:25:36.074Z,11.21
2018-11-13T04:28:05.853Z,11.18
2018-11-13T04:30:35.722Z,11.18
2018-11-13T04:33:05.905Z,11.19
2018-11-13T04:35:35.735Z,11.18
2018-11-13T04:38:05.865Z,11.17
2018-11-13T04:40:35.736Z,11.17
2018-11-13T04:43:05.874Z,11.13
2018-11-13T04:45:35.693Z,11.13
2018-11-13T04:48:05.959Z,11.12
2018-11-13T04:50:35.846Z,11.17
2018-11-13T04:53:06.492Z,11.16
2018-11-13T04:55:36.294Z,11.16
2018-11-13T04:58:06.323Z,11.15
2018-11-13T05:00:36.110Z,11.23
2018-11-13T05:03:06.185Z,11.25
2018-11-13T05:05:35.951Z,11.31
2018-11-13T05:08:05.876Z,11.32
2018-11-13T05:10:35.697Z,11.37
2018-11-13T05:13:05.839Z,11.37
2018-11-13T05:15:35.716Z,11.38
2018-11-13T05:18:06.394Z,11.38
2018-11-13T05:20:36.247Z,11.44
2018-11-13T05:23:06.268Z,11.54
2018-11-13T05:25:36.091Z,11.62
2018-11-13T05:28:06.819Z,11.83
2018-11-13T05:30:36.682Z,12.09
2018-11-13T05:33:06.555Z,12.21
2018-11-13T05:35:36.406Z,12.25
2018-11-13T05:38:06.295Z,12.36
2018-11-13T05:40:36.090Z,12.31
2018-11-13T05:43:05.912Z,12.35
2018-11-13T05:45:35.836Z,12.34
2018-11-13T05:48:06.095Z,12.37
2018-11-13T05:50:35.949Z,12.36
2018-11-13T05:53:06.854Z,12.34
2018-11-13T05:55:36.710Z,12.30
2018-11-13T05:58:06.535Z,12.16
2018-11-13T06:00:36.374Z,12.05
2018-11-13T06:03:06.262Z,11.95
2018-11-13T06:05:36.070Z,11.84
2018-11-13T06:08:06.445Z,11.73
2018-11-13T06:10:36.246Z,11.63
2018-11-13T06:13:06.154Z,11.55
2018-11-13T06:15:36.035Z,11.55
2018-11-13T06:18:05.995Z,11.52
2018-11-13T06:20:35.866Z,11.48
2018-11-13T06:23:05.856Z,11.39
2018-11-13T06:25:35.595Z,11.29
2018-11-13T06:28:05.841Z,11.26
2018-11-13T06:30:35.646Z,11.16
2018-11-13T06:33:06.107Z,11.14
2018-11-13T06:35:35.966Z,11.11
2018-11-13T06:38:05.862Z,11.12
2018-11-13T06:40:35.685Z,11.05
2018-11-13T06:43:06.055Z,11.03
2018-11-13T06:45:35.846Z,11.02
2018-11-13T06:48:05.997Z,11.01
2018-11-13T06:50:35.775Z,11.02
2018-11-13T06:53:05.709Z,11.00
2018-11-13T06:55:36.631Z,10.98
2018-11-13T06:58:07.093Z,11.00
2018-11-13T07:00:37.006Z,10.97
2018-11-13T07:03:06.910Z,10.93
2018-11-13T07:05:36.828Z,10.93
2018-11-13T07:08:06.943Z,10.94
2018-11-13T07:10:36.783Z,10.94
2018-11-13T07:13:06.830Z,10.94
2018-11-13T07:15:36.687Z,10.92
2018-11-13T07:18:06.454Z,10.90
2018-11-13T07:20:36.451Z,10.93
2018-11-13T07:23:06.329Z,10.92
2018-11-13T07:25:36.273Z,10.93
2018-11-13T07:28:06.379Z,10.93
2018-11-13T07:30:36.150Z,10.95
2018-11-13T07:33:05.961Z,10.95
2018-11-13T07:35:35.825Z,11.00
2018-11-13T07:38:05.915Z,11.00
2018-11-13T07:40:35.743Z,11.04
2018-11-13T07:43:05.866Z,11.03
2018-11-13T07:45:35.758Z,11.09
2018-11-13T07:48:06.148Z,11.09
2018-11-13T07:50:35.982Z,11.11
2018-11-13T07:53:05.861Z,11.13
2018-11-13T07:55:35.698Z,11.18
2018-11-13T07:58:05.538Z,11.26
2018-11-13T08:00:35.333Z,11.37
2018-11-13T08:03:16.443Z,11.55
2018-11-13T08:05:46.352Z,11.65
2018-11-13T08:08:16.216Z,11.57
2018-11-13T08:10:46.095Z,11.52
2018-11-13T08:13:16.093Z,11.53
2018-11-13T08:15:45.814Z,11.48
2018-11-13T08:18:15.690Z,11.54
2018-11-13T08:20:45.514Z,11.56
2018-11-13T08:23:15.362Z,11.61
2018-11-13T08:25:45.255Z,11.57
2018-11-13T08:28:15.074Z,11.54
2018-11-13T08:30:44.846Z,11.51
2018-11-13T08:33:14.769Z,11.50
2018-11-13T08:35:44.665Z,11.48
2018-11-13T08:38:14.411Z,11.49
2018-11-13T08:40:44.194Z,11.48
2018-11-13T08:43:14.030Z,11.43
2018-11-13T08:45:43.822Z,11.43
2018-11-13T08:48:13.639Z,11.45
2018-11-13T08:50:43.519Z,11.45
2018-11-13T08:53:13.412Z,11.45
2018-11-13T08:55:43.171Z,11.45
2018-11-13T08:58:13.041Z,11.43
2018-11-13T09:00:42.923Z,11.48
2018-11-13T09:03:12.766Z,11.49
2018-11-13T09:05:42.639Z,11.55
2018-11-13T09:08:12.491Z,11.68
2018-11-13T09:10:42.242Z,11.75
2018-11-13T09:13:12.090Z,11.86
2018-11-13T09:15:41.919Z,12.03
2018-11-13T09:18:11.718Z,12.19
2018-11-13T09:20:41.531Z,12.23
2018-11-13T09:23:11.386Z,12.22
2018-11-13T09:25:41.158Z,12.21
2018-11-13T09:28:10.973Z,12.08
2018-11-13T09:30:40.951Z,11.87
2018-11-13T09:33:10.726Z,11.82
2018-11-13T09:35:40.663Z,11.82
2018-11-13T09:38:10.579Z,11.78
2018-11-13T09:40:40.415Z,11.86
2018-11-13T09:43:10.260Z,11.88
2018-11-13T09:45:40.093Z,11.90
2018-11-13T09:48:09.894Z,11.86
2018-11-13T09:50:39.734Z,11.92
2018-11-13T09:53:09.607Z,11.95
2018-11-13T09:55:39.446Z,11.95
2018-11-13T09:58:09.247Z,12.04
2018-11-13T10:00:39.243Z,12.12
2018-11-13T10:03:09.630Z,12.20
2018-11-13T10:05:38.877Z,12.26
2018-11-13T10:08:08.590Z,12.29
2018-11-13T10:10:38.437Z,12.26
2018-11-13T10:13:08.343Z,12.40
2018-11-13T10:15:38.205Z,12.48
2018-11-13T10:18:08.356Z,12.48
2018-11-13T10:20:38.138Z,12.39
2018-11-13T10:23:08.023Z,12.33
2018-11-13T10:25:37.889Z,12.25
2018-11-13T10:28:07.758Z,12.18
2018-11-13T10:30:37.604Z,12.11
2018-11-13T10:33:07.601Z,11.99
2018-11-13T10:35:37.466Z,11.97
2018-11-13T10:38:07.371Z,11.94
2018-11-13T10:40:37.262Z,11.97
2018-11-13T10:43:07.078Z,12.07
2018-11-13T10:45:36.902Z,12.14
2018-11-13T10:48:06.860Z,12.09
2018-11-13T10:50:36.658Z,12.17
2018-11-13T10:53:06.522Z,12.22
2018-11-13T10:55:36.389Z,12.22
2018-11-13T10:58:06.198Z,12.25
2018-11-13T11:00:41.147Z,12.22
2018-11-13T11:03:16.431Z,12.26
2018-11-13T11:05:46.238Z,12.31
2018-11-13T11:08:16.074Z,12.50
2018-11-13T11:10:45.858Z,12.64
2018-11-13T11:13:15.874Z,12.86
2018-11-13T11:15:45.485Z,12.99
2018-11-13T11:18:15.357Z,13.13
2018-11-13T11:20:45.122Z,13.23
2018-11-13T11:23:15.015Z,13.18
2018-11-13T11:25:44.853Z,13.27
2018-11-13T11:28:14.816Z,13.29
2018-11-13T11:30:44.670Z,13.37
2018-11-13T11:33:14.992Z,13.55
2018-11-13T11:35:44.903Z,13.59
2018-11-13T11:38:14.748Z,13.50
2018-11-13T11:40:44.531Z,13.64
2018-11-13T11:43:14.559Z,13.68
2018-11-13T11:45:44.358Z,13.62
2018-11-13T11:48:14.291Z,13.54
2018-11-13T11:50:44.147Z,13.49
2018-11-13T11:53:13.926Z,13.63
2018-11-13T11:55:43.777Z,13.77
2018-11-13T11:58:13.538Z,13.97
2018-11-13T12:00:43.428Z,14.06
2018-11-13T12:03:13.204Z,14.13
2018-11-13T12:05:42.968Z,14.10
2018-11-13T12:08:12.832Z,14.01
2018-11-13T12:10:42.586Z,13.98
2018-11-13T12:13:12.422Z,13.92
2018-11-13T12:15:42.271Z,13.76
2018-11-13T12:18:12.050Z,13.54
2018-11-13T12:20:41.876Z,13.40
2018-11-13T12:23:11.678Z,13.35
2018-11-13T12:25:41.518Z,13.26
2018-11-13T12:28:11.307Z,13.23
2018-11-13T12:30:41.094Z,13.18
2018-11-13T12:33:10.912Z,13.25
2018-11-13T12:35:40.722Z,13.27
2018-11-13T12:38:10.672Z,13.22
2018-11-13T12:40:41.625Z,13.22
2018-11-13T12:43:11.344Z,13.24
2018-11-13T12:45:41.120Z,13.28
2018-11-13T12:48:11.002Z,13.36
2018-11-13T12:50:46.147Z,13.40
2018-11-13T12:53:15.986Z,13.58
2018-11-13T12:55:45.853Z,13.66
2018-11-13T12:58:16.639Z,13.81
2018-11-13T13:00:46.484Z,13.96
2018-11-13T13:03:16.271Z,14.11
2018-11-13T13:05:46.059Z,14.27
2018-11-13T13:08:15.898Z,14.42
2018-11-13T13:10:45.699Z,14.80
2018-11-13T13:13:15.535Z,15.49
2018-11-13T13:15:45.315Z,16.61
2018-11-13T13:18:15.146Z,19.73
2018-11-13T13:20:44.922Z,19.12
2018-11-13T13:23:14.791Z,18.10
2018-11-13T13:25:44.660Z,17.67
2018-11-13T13:28:14.827Z,17.80
2018-11-13T13:30:44.605Z,17.99
2018-11-13T13:33:14.511Z,17.87
2018-11-13T13:35:47.294Z,18.04
2018-11-13T13:38:17.178Z,18.83
2018-11-13T13:40:48.420Z,19.07
2018-11-13T13:43:18.609Z,18.88
2018-11-13T13:45:49.062Z,18.49
2018-11-13T13:48:19.111Z,17.93
2018-11-13T13:50:48.995Z,17.56
2018-11-13T13:53:19.662Z,17.10
2018-11-13T13:55:50.057Z,16.32
2018-11-13T13:58:20.707Z,15.57
2018-11-13T14:00:51.213Z,15.01
2018-11-13T14:03:20.890Z,14.57
2018-11-13T14:05:50.742Z,14.33
2018-11-13T14:08:20.879Z,14.10
2018-11-13T14:10:50.711Z,13.99
2018-11-13T14:13:21.179Z,13.94
2018-11-13T14:15:50.991Z,14.01
2018-11-13T14:18:20.794Z,14.05
2018-11-13T14:20:50.657Z,14.06
2018-11-13T14:23:20.495Z,14.03
2018-11-13T14:25:50.343Z,13.97
2018-11-13T14:28:20.135Z,14.11
2018-11-13T14:30:49.955Z,14.30
2018-11-13T14:33:19.752Z,14.49
2018-11-13T14:35:49.644Z,14.46
2018-11-13T14:38:19.474Z,14.45
2018-11-13T14:40:49.675Z,14.32
2018-11-13T14:43:19.489Z,14.17
2018-11-13T14:45:49.345Z,14.03
2018-11-13T14:48:19.106Z,13.93
2018-11-13T14:50:49.010Z,13.79
2018-11-13T14:53:18.935Z,13.76
2018-11-13T14:55:48.708Z,13.82
2018-11-13T14:58:18.506Z,13.89
2018-11-13T15:00:48.362Z,13.93
2018-11-13T15:03:18.487Z,13.89
2018-11-13T15:05:48.379Z,13.86
2018-11-13T15:08:18.243Z,13.77
2018-11-13T15:10:51.170Z,13.71
2018-11-13T15:13:22.136Z,13.58
2018-11-13T15:15:52.058Z,13.43
2018-11-13T15:18:21.946Z,13.15
2018-11-13T15:20:52.637Z,12.82
2018-11-13T15:23:22.466Z,12.56
2018-11-13T15:25:52.350Z,12.31
2018-11-13T15:28:22.191Z,12.14
2018-11-13T15:30:52.162Z,11.94
2018-11-13T15:33:23.552Z,11.71
2018-11-13T15:35:53.406Z,11.54
2018-11-13T15:38:23.387Z,11.36
2018-11-13T15:40:53.332Z,11.20
2018-11-13T15:43:23.097Z,11.05
2018-11-13T15:45:53.068Z,10.94
2018-11-13T15:48:23.075Z,10.92
2018-11-13T15:50:52.922Z,10.89
2018-11-13T15:53:22.775Z,10.77
2018-11-13T15:55:52.638Z,10.62
2018-11-13T15:58:22.554Z,10.44
2018-11-13T16:00:53.208Z,10.31
2018-11-13T16:03:25.758Z,10.21
2018-11-13T16:05:56.104Z,10.11
2018-11-13T16:08:25.926Z,10.11
2018-11-13T16:10:55.893Z,10.09
2018-11-13T16:13:25.811Z,10.02
2018-11-13T16:15:55.743Z,9.98
2018-11-13T16:18:26.910Z,9.90
2018-11-13T16:20:56.856Z,9.84
2018-11-13T16:23:26.701Z,9.81
2018-11-13T16:25:56.513Z,9.71
2018-11-13T16:28:26.294Z,9.59
2018-11-13T16:30:56.922Z,9.47
2018-11-13T16:33:26.739Z,9.33
2018-11-13T16:35:56.713Z,9.22
2018-11-13T16:38:26.644Z,9.14
2018-11-13T16:40:56.443Z,9.19
2018-11-13T16:43:26.300Z,9.09
2018-11-13T16:45:56.123Z,9.09
2018-11-13T16:48:26.705Z,9.10
2018-11-13T16:50:56.590Z,9.12
2018-11-13T16:53:26.599Z,9.20
2018-11-13T16:56:01.687Z,9.11
2018-11-13T16:58:31.445Z,9.03
2018-11-13T17:01:01.474Z,9.04
2018-11-13T17:03:31.276Z,8.95
2018-11-13T17:06:01.320Z,8.94
2018-11-13T17:08:31.176Z,9.04
2018-11-13T17:11:01.156Z,8.97
2018-11-13T17:13:30.999Z,8.91
2018-11-13T17:16:00.899Z,8.84
2018-11-13T17:18:30.726Z,8.70
2018-11-13T17:21:00.630Z,8.69
2018-11-13T17:23:30.521Z,8.72
2018-11-13T17:26:00.314Z,8.74
2018-11-13T17:28:30.160Z,8.65
2018-11-13T17:31:00.024Z,8.58
2018-11-13T17:33:29.809Z,8.54
2018-11-13T17:35:59.754Z,8.45
2018-11-13T17:38:29.530Z,8.45
2018-11-13T17:40:59.459Z,8.42
2018-11-13T17:43:29.315Z,8.31
2018-11-13T17:45:59.107Z,8.21
2018-11-13T17:48:29.299Z,8.23
2018-11-13T17:50:59.158Z,8.14
2018-11-13T17:53:29.116Z,8.13
2018-11-13T17:55:59.037Z,8.21
2018-11-13T17:58:28.857Z,8.31
2018-11-13T18:00:58.746Z,8.39
2018-11-13T18:03:28.638Z,8.50
2018-11-13T18:05:58.556Z,8.51
2018-11-13T18:08:28.425Z,8.45
2018-11-13T18:10:58.437Z,8.55
2018-11-13T18:13:28.270Z,8.49
2018-11-13T18:15:58.355Z,8.56
2018-11-13T18:18:28.277Z,8.82
2018-11-13T18:20:58.122Z,9.03
2018-11-13T18:23:28.140Z,9.16
2018-11-13T18:25:57.970Z,9.06
2018-11-13T18:28:27.968Z,9.01
2018-11-13T18:30:57.645Z,8.97
2018-11-13T18:33:27.679Z,8.90
2018-11-13T18:35:57.618Z,8.81
2018-11-13T18:38:27.979Z,8.93
2018-11-13T18:40:57.751Z,8.88
2018-11-13T18:43:27.564Z,8.87
2018-11-13T18:45:57.436Z,8.75
2018-11-13T18:48:27.286Z,8.66
2018-11-13T18:50:57.099Z,8.62
2018-11-13T18:53:26.957Z,8.58
2018-11-13T18:55:56.751Z,8.54
2018-11-13T18:58:26.622Z,8.40
2018-11-13T19:00:56.575Z,8.28
2018-11-13T19:03:26.489Z,8.18
2018-11-13T19:05:56.390Z,8.14
2018-11-13T19:08:26.216Z,8.31
2018-11-13T19:10:56.762Z,8.43
2018-11-13T19:13:27.856Z,8.44
2018-11-13T19:15:59.927Z,8.37
2018-11-13T19:18:30.155Z,8.24
2018-11-13T19:20:59.866Z,8.04
2018-11-13T19:23:29.661Z,7.84
2018-11-13T19:26:00.522Z,7.92
2018-11-13T19:28:30.480Z,8.04
2018-11-13T19:31:00.430Z,8.13
2018-11-13T19:33:30.237Z,8.06
2018-11-13T19:36:00.456Z,7.95
2018-11-13T19:38:30.174Z,7.94
2018-11-13T19:41:00.030Z,8.03
2018-11-13T19:43:29.798Z,7.98
2018-11-13T19:45:59.805Z,7.92
2018-11-13T19:48:29.559Z,7.97
2018-11-13T19:50:59.447Z,8.15
2018-11-13T19:53:29.333Z,8.25
2018-11-13T19:55:59.301Z,8.16
2018-11-13T19:58:29.114Z,8.11
2018-11-13T20:00:59.160Z,8.11
2018-11-13T20:03:28.855Z,8.02
2018-11-13T20:05:58.731Z,8.05
2018-11-13T20:08:28.486Z,8.21
2018-11-13T20:10:58.345Z,8.29
2018-11-13T20:13:28.227Z,8.36
2018-11-13T20:15:58.345Z,8.32
2018-11-13T20:18:28.163Z,8.22
2018-11-13T20:20:58.981Z,8.16
2018-11-13T20:23:29.813Z,8.18
2018-11-13T20:25:59.583Z,8.12
2018-11-13T20:28:29.415Z,8.03
2018-11-13T20:30:59.538Z,7.88
2018-11-13T20:33:29.231Z,7.75
2018-11-13T20:35:59.080Z,7.73
2018-11-13T20:38:28.846Z,7.68
2018-11-13T20:40:58.946Z,7.62
2018-11-13T20:43:29.042Z,7.62
2018-11-13T20:45:58.531Z,7.62
2018-11-13T20:48:28.325Z,7.53
2018-11-13T20:50:58.270Z,7.54
2018-11-13T20:53:28.118Z,7.58
2018-11-13T20:55:57.978Z,7.47
2018-11-13T20:58:27.778Z,7.40
2018-11-13T21:00:57.624Z,7.50
2018-11-13T21:03:27.727Z,7.52
2018-11-13T21:05:57.511Z,7.55
2018-11-13T21:08:27.264Z,7.50
2018-11-13T21:11:01.066Z,7.67
2018-11-13T21:13:30.287Z,7.75
2018-11-13T21:16:00.125Z,7.85
2018-11-13T21:18:30.023Z,7.96
2018-11-13T21:20:59.899Z,7.90
2018-11-13T21:23:29.977Z,7.73
2018-11-13T21:25:59.867Z,7.61
2018-11-13T21:28:29.743Z,7.52
2018-11-13T21:30:59.659Z,7.51
2018-11-13T21:33:29.591Z,7.43
2018-11-13T21:35:59.694Z,7.51
2018-11-13T21:38:29.511Z,7.54
2018-11-13T21:40:59.311Z,7.64
2018-11-13T21:43:29.204Z,7.74
2018-11-13T21:45:59.034Z,7.84
2018-11-13T21:48:28.842Z,7.67
2018-11-13T21:50:58.739Z,7.56
2018-11-13T21:53:28.559Z,7.38
2018-11-13T21:55:58.545Z,7.24
2018-11-13T21:58:28.350Z,7.14
2018-11-13T22:00:58.230Z,7.13
2018-11-13T22:03:28.174Z,7.31
2018-11-13T22:05:58.051Z,7.52
2018-11-13T22:08:27.997Z,7.37
2018-11-13T22:10:57.766Z,7.20
2018-11-13T22:13:27.622Z,7.05
2018-11-13T22:15:57.534Z,7.16
2018-11-13T22:18:27.470Z,7.12
2018-11-13T22:20:57.340Z,7.10
2018-11-13T22:23:27.175Z,7.21
2018-11-13T22:25:57.311Z,7.33
2018-11-13T22:28:27.293Z,7.43
2018-11-13T22:30:57.103Z,7.48
2018-11-13T22:33:26.940Z,7.61
2018-11-13T22:35:56.862Z,7.77
2018-11-13T22:38:26.759Z,7.67
2018-11-13T22:40:56.634Z,7.66
2018-11-13T22:43:27.128Z,7.68
2018-11-13T22:45:58.054Z,7.44
2018-11-13T22:48:27.856Z,7.33
2018-11-13T22:50:58.104Z,7.45
2018-11-13T22:53:27.487Z,7.45
2018-11-13T22:55:57.295Z,7.56
2018-11-13T22:58:27.110Z,7.43
2018-11-13T23:00:56.996Z,7.41
2018-11-13T23:03:26.842Z,7.64
2018-11-13T23:05:56.607Z,7.61
2018-11-13T23:08:26.462Z,7.52
2018-11-13T23:10:56.306Z,7.59
2018-11-13T23:13:26.103Z,7.53
2018-11-13T23:15:55.983Z,7.55
2018-11-13T23:18:25.811Z,7.55
2018-11-13T23:20:55.603Z,7.45
2018-11-13T23:23:25.442Z,7.38
2018-11-13T23:25:55.217Z,7.22
2018-11-13T23:28:25.198Z,7.31
2018-11-13T23:30:55.069Z,7.22
2018-11-13T23:33:24.892Z,7.25
2018-11-13T23:35:54.735Z,7.32
2018-11-13T23:38:24.502Z,7.34
2018-11-13T23:40:54.886Z,7.44
2018-11-13T23:43:24.798Z,7.49
2018-11-13T23:45:54.683Z,7.51
2018-11-13T23:48:24.495Z,7.47
2018-11-13T23:50:54.342Z,7.39
2018-11-13T23:53:24.198Z,7.48
2018-11-13T23:55:54.021Z,7.45
2018-11-13T23:58:23.830Z,7.49
